Terminal Aerodrome Forecast
Issued by NWS Milwaukee/Sullivan, WI

Home | Current Version | Previous Version | Text Only | Print | Product List | Glossary On
Versions: 1 2 3 4 5 6 7 8 9 10 11 12 13 14 15 16 17 18 19 20 21 22 23 24 25 26 27 28 29 30 31 32 33 34 35 36 37 38 39 40 41 42 43 44 45
000
FTUS43 KMKX 221123
TAFMSN
TAF
KMSN 221123Z 2212/2312 19010G21KT P6SM FEW060 SCT150 BKN250
     FM221500 21013G22KT P6SM SCT120 BKN200
     FM222000 25011G21KT P6SM VCTS SCT040 BKN100CB
     FM230000 29008KT P6SM SCT040 BKN200
     FM230200 35008KT P6SM BKN200
     FM230700 02007KT P6SM SKC=

USA.gov is the U.S. government's official web portal to all federal, state and local government web resources and services.